»·PEaware :: SWA1821 KONT-KLAS

SWA1821 :: KONT-KLAS

FLIGHT INFORMATION

Flight Status: Arrived
Operator:
Southwest Airlines
More flights by this operator :: More flights under this callsign
Pilot: Ben F. (2808)
Aircraft: BOEING 737-300
(B733)
More flights by this aircraft type
Origin: KONT Ontario Intl
United States
Destination: KLAS McCarran Intl
United States
More flights between these airports :: More routes between these airports
Route: +SNSHN3 MISEN KEPEC6
File this flight plan on PilotEdge
Remarks:
Altitude:
(Current/Filed)
29,000ft
Speed:
(Current/Filed)
440kts
Departed: 07-Nov-18 05:38 PM
Arrived: 07-Nov-18 06:18 PM
Distance/Time
Traveled:
171nm/0:40
Distance/Time
To Go:
Arrived

Flight Plot

Page will automatically refresh every two minutes.

Flight plan parsing failed; only flown route is shown


Map Options




Map Legend


Flown Route
Filed Route
Departure Airport
Arrival Airport
Navaid (VOR, NDB)
Fix

Horizontal Profiles

Position Reports

Time Latitude Longitude Heading Altitude Ground
Speed
07-Nov-18 17:29 34.059692 -117.587335 0 950ft 0kts
07-Nov-18 17:30 34.059692 -117.587335 0 950ft 0kts
07-Nov-18 17:31 34.059692 -117.587335 0 950ft 0kts
07-Nov-18 17:32 34.059692 -117.587335 0 950ft 0kts
07-Nov-18 17:33 34.059692 -117.587335 360 950ft 0kts
07-Nov-18 17:34 34.059692 -117.587335 0 950ft 0kts
07-Nov-18 17:35 34.059692 -117.587335 0 950ft 0kts
07-Nov-18 17:36 34.059405 -117.587367 24 950ft 2kts
07-Nov-18 17:37 34.059242 -117.587723 89 950ft 0kts
07-Nov-18 17:38 34.059242 -117.587722 89 950ft 0kts
07-Nov-18 17:39 34.059223 -117.585226 89 950ft 16kts
07-Nov-18 17:40 34.057423 -117.582690 179 950ft 11kts
07-Nov-18 17:41 34.056883 -117.601858 269 952ft 150kts
07-Nov-18 17:42 34.057970 -117.663318 270 2250ft 219kts
07-Nov-18 17:43 34.067460 -117.740791 285 4466ft 256kts
07-Nov-18 17:44 34.100497 -117.816027 310 7386ft 266kts
07-Nov-18 17:45 34.154489 -117.877422 318 10213ft 273kts
07-Nov-18 17:46 34.215285 -117.939994 323 12275ft 305kts
07-Nov-18 17:47 34.292600 -117.910903 53 14467ft 352kts
07-Nov-18 17:48 34.345932 -117.804541 54 16292ft 384kts
07-Nov-18 17:49 34.402025 -117.691626 54 18384ft 400kts
07-Nov-18 17:50 34.460057 -117.574377 54 20334ft 414kts
07-Nov-18 17:51 34.524869 -117.457172 51 22075ft 427kts
07-Nov-18 17:52 34.591692 -117.337267 51 23589ft 441kts
07-Nov-18 17:53 34.660936 -117.212078 51 24886ft 452kts
07-Nov-18 17:54 34.730892 -117.085213 51 24955ft 465kts
07-Nov-18 17:55 34.805104 -116.950243 52 24941ft 489kts
07-Nov-18 17:56 34.880320 -116.812805 51 24913ft 489kts
07-Nov-18 17:57 34.955754 -116.674595 51 24913ft 493kts
07-Nov-18 17:58 35.031891 -116.534535 51 24921ft 497kts
07-Nov-18 17:59 35.106967 -116.397321 44 23949ft 480kts
07-Nov-18 18:00 35.197313 -116.285059 40 23942ft 479kts
07-Nov-18 18:01 35.289811 -116.168980 41 22482ft 472kts
07-Nov-18 18:02 35.378448 -116.057379 41 19978ft 446kts
07-Nov-18 18:03 35.462777 -115.950875 42 17647ft 429kts
07-Nov-18 18:04 35.543500 -115.848584 42 15444ft 406kts
07-Nov-18 18:05 35.628985 -115.766893 34 13625ft 375kts
07-Nov-18 18:06 35.706819 -115.691847 35 12778ft 343kts
07-Nov-18 18:07 35.782009 -115.618866 35 12284ft 343kts
07-Nov-18 18:08 35.856368 -115.546477 35 11790ft 340kts
07-Nov-18 18:09 35.927564 -115.476971 35 11252ft 302kts
07-Nov-18 18:10 35.988992 -115.416907 34 10969ft 274kts
07-Nov-18 18:11 36.029092 -115.343991 93 10733ft 291kts
07-Nov-18 18:12 36.021732 -115.246771 93 9315ft 280kts
07-Nov-18 18:13 36.015155 -115.154203 93 8026ft 269kts
07-Nov-18 18:14 36.009256 -115.065850 91 6729ft 251kts
07-Nov-18 18:15 36.003722 -114.984136 92 5552ft 231kts
07-Nov-18 18:16 36.026905 -114.925249 359 4926ft 217kts
07-Nov-18 18:17 36.071590 -114.964539 281 4819ft 195kts
07-Nov-18 18:18 36.073806 -115.024907 272 3766ft 157kts
07-Nov-18 18:19 36.073709 -115.078009 271 2944ft 154kts
07-Nov-18 18:20 36.073650 -115.130229 270 2152ft 153kts
07-Nov-18 18:21 36.077081 -115.146645 0 2148ft 24kts
07-Nov-18 18:22 36.079757 -115.146260 341 2148ft 2kts

Navigation Log

Ident Type
Flight plan parsing failed, navigation log unavailable